sensor_id;sensor_type;location;lat;lon;timestamp;P1;durP1;ratioP1;P2;durP2;ratioP2
34296;SDS011;20564;42.902;25.336;2023-07-13T00:00:56;11.60;;;4.50;;
34296;SDS011;20564;42.902;25.336;2023-07-13T00:03:24;11.02;;;4.38;;
34296;SDS011;20564;42.902;25.336;2023-07-13T00:05:59;9.15;;;4.15;;
34296;SDS011;20564;42.902;25.336;2023-07-13T00:08:30;10.45;;;4.20;;
34296;SDS011;20564;42.902;25.336;2023-07-13T00:11:00;11.73;;;4.68;;
34296;SDS011;20564;42.902;25.336;2023-07-13T00:13:29;11.05;;;4.65;;
34296;SDS011;20564;42.902;25.336;2023-07-13T00:15:58;11.57;;;4.72;;
34296;SDS011;20564;42.902;25.336;2023-07-13T00:18:29;11.15;;;4.47;;
34296;SDS011;20564;42.902;25.336;2023-07-13T00:20:59;11.63;;;4.80;;
34296;SDS011;20564;42.902;25.336;2023-07-13T00:23:32;10.00;;;3.95;;
34296;SDS011;20564;42.902;25.336;2023-07-13T00:26:05;11.82;;;4.75;;
34296;SDS011;20564;42.902;25.336;2023-07-13T00:28:35;10.68;;;4.72;;
34296;SDS011;20564;42.902;25.336;2023-07-13T00:33:34;11.20;;;4.65;;
34296;SDS011;20564;42.902;25.336;2023-07-13T00:36:02;10.80;;;4.53;;
34296;SDS011;20564;42.902;25.336;2023-07-13T00:38:31;12.00;;;4.68;;
34296;SDS011;20564;42.902;25.336;2023-07-13T00:41:02;10.02;;;4.30;;
34296;SDS011;20564;42.902;25.336;2023-07-13T00:43:31;11.40;;;4.70;;
34296;SDS011;20564;42.902;25.336;2023-07-13T00:48:37;10.07;;;4.35;;
34296;SDS011;20564;42.902;25.336;2023-07-13T00:51:09;11.57;;;4.63;;
34296;SDS011;20564;42.902;25.336;2023-07-13T00:53:38;10.35;;;4.28;;
34296;SDS011;20564;42.902;25.336;2023-07-13T00:56:06;11.40;;;4.45;;
34296;SDS011;20564;42.902;25.336;2023-07-13T00:58:35;10.95;;;4.75;;
34296;SDS011;20564;42.902;25.336;2023-07-13T01:03:30;9.73;;;4.18;;
34296;SDS011;20564;42.902;25.336;2023-07-13T01:05:59;10.38;;;4.35;;
34296;SDS011;20564;42.902;25.336;2023-07-13T01:08:27;11.10;;;4.65;;
34296;SDS011;20564;42.902;25.336;2023-07-13T01:10:56;11.40;;;4.53;;
34296;SDS011;20564;42.902;25.336;2023-07-13T01:13:25;10.82;;;4.15;;
34296;SDS011;20564;42.902;25.336;2023-07-13T01:15:54;11.43;;;4.95;;
34296;SDS011;20564;42.902;25.336;2023-07-13T01:18:26;13.07;;;4.60;;
34296;SDS011;20564;42.902;25.336;2023-07-13T01:20:59;10.10;;;3.97;;
34296;SDS011;20564;42.902;25.336;2023-07-13T01:23:29;11.63;;;4.75;;
34296;SDS011;20564;42.902;25.336;2023-07-13T01:26:01;14.18;;;4.80;;
34296;SDS011;20564;42.902;25.336;2023-07-13T01:30:57;11.75;;;4.68;;
34296;SDS011;20564;42.902;25.336;2023-07-13T01:33:29;12.13;;;4.93;;
34296;SDS011;20564;42.902;25.336;2023-07-13T01:35:58;10.48;;;4.63;;
34296;SDS011;20564;42.902;25.336;2023-07-13T01:38:25;10.65;;;4.68;;
34296;SDS011;20564;42.902;25.336;2023-07-13T01:40:55;11.60;;;4.95;;
34296;SDS011;20564;42.902;25.336;2023-07-13T01:43:24;12.15;;;4.72;;
34296;SDS011;20564;42.902;25.336;2023-07-13T01:48:26;7.97;;;3.80;;
34296;SDS011;20564;42.902;25.336;2023-07-13T01:50:54;11.63;;;4.28;;
34296;SDS011;20564;42.902;25.336;2023-07-13T01:53:21;10.52;;;4.45;;
34296;SDS011;20564;42.902;25.336;2023-07-13T01:55:49;10.60;;;4.20;;
34296;SDS011;20564;42.902;25.336;2023-07-13T01:58:17;10.00;;;4.30;;
34296;SDS011;20564;42.902;25.336;2023-07-13T02:00:47;10.38;;;4.47;;
34296;SDS011;20564;42.902;25.336;2023-07-13T02:03:16;13.43;;;4.35;;
34296;SDS011;20564;42.902;25.336;2023-07-13T02:05:45;10.75;;;4.57;;
34296;SDS011;20564;42.902;25.336;2023-07-13T02:10:40;10.30;;;4.28;;
34296;SDS011;20564;42.902;25.336;2023-07-13T02:13:08;9.63;;;4.15;;
34296;SDS011;20564;42.902;25.336;2023-07-13T02:15:38;10.27;;;4.70;;
34296;SDS011;20564;42.902;25.336;2023-07-13T02:18:06;9.77;;;4.40;;
34296;SDS011;20564;42.902;25.336;2023-07-13T02:20:34;11.95;;;4.70;;
34296;SDS011;20564;42.902;25.336;2023-07-13T02:23:02;11.02;;;4.45;;
34296;SDS011;20564;42.902;25.336;2023-07-13T02:25:34;10.13;;;4.18;;
34296;SDS011;20564;42.902;25.336;2023-07-13T02:30:33;10.32;;;3.95;;
34296;SDS011;20564;42.902;25.336;2023-07-13T02:33:01;10.73;;;4.57;;
34296;SDS011;20564;42.902;25.336;2023-07-13T02:35:28;12.80;;;4.82;;
34296;SDS011;20564;42.902;25.336;2023-07-13T02:37:55;10.10;;;4.70;;
34296;SDS011;20564;42.902;25.336;2023-07-13T02:40:23;10.23;;;4.55;;
34296;SDS011;20564;42.902;25.336;2023-07-13T02:42:51;9.48;;;4.18;;
34296;SDS011;20564;42.902;25.336;2023-07-13T02:45:18;9.82;;;3.80;;
34296;SDS011;20564;42.902;25.336;2023-07-13T02:47:45;11.70;;;5.13;;
34296;SDS011;20564;42.902;25.336;2023-07-13T02:50:13;10.40;;;4.57;;
34296;SDS011;20564;42.902;25.336;2023-07-13T02:52:49;12.18;;;4.30;;
34296;SDS011;20564;42.902;25.336;2023-07-13T02:55:16;10.43;;;4.13;;
34296;SDS011;20564;42.902;25.336;2023-07-13T02:57:43;10.00;;;4.07;;
34296;SDS011;20564;42.902;25.336;2023-07-13T03:00:10;9.32;;;4.40;;
34296;SDS011;20564;42.902;25.336;2023-07-13T03:05:04;10.85;;;4.15;;
34296;SDS011;20564;42.902;25.336;2023-07-13T03:07:31;10.52;;;4.43;;
34296;SDS011;20564;42.902;25.336;2023-07-13T03:09:59;11.50;;;4.30;;
34296;SDS011;20564;42.902;25.336;2023-07-13T03:12:26;11.70;;;4.47;;
34296;SDS011;20564;42.902;25.336;2023-07-13T03:14:53;10.27;;;4.53;;
34296;SDS011;20564;42.902;25.336;2023-07-13T03:17:20;12.25;;;5.00;;
34296;SDS011;20564;42.902;25.336;2023-07-13T03:19:47;10.38;;;4.30;;
34296;SDS011;20564;42.902;25.336;2023-07-13T03:22:17;9.95;;;4.68;;
34296;SDS011;20564;42.902;25.336;2023-07-13T03:24:45;14.10;;;5.10;;
34296;SDS011;20564;42.902;25.336;2023-07-13T03:27:12;10.43;;;4.28;;
34296;SDS011;20564;42.902;25.336;2023-07-13T03:29:40;12.95;;;4.82;;
34296;SDS011;20564;42.902;25.336;2023-07-13T03:32:07;12.07;;;4.82;;
34296;SDS011;20564;42.902;25.336;2023-07-13T03:34:35;12.85;;;4.63;;
34296;SDS011;20564;42.902;25.336;2023-07-13T03:37:03;11.85;;;5.10;;
34296;SDS011;20564;42.902;25.336;2023-07-13T03:39:31;11.32;;;4.68;;
34296;SDS011;20564;42.902;25.336;2023-07-13T03:41:58;11.57;;;4.60;;
34296;SDS011;20564;42.902;25.336;2023-07-13T03:44:25;14.77;;;5.10;;
34296;SDS011;20564;42.902;25.336;2023-07-13T03:46:52;18.58;;;5.72;;
34296;SDS011;20564;42.902;25.336;2023-07-13T03:49:19;17.25;;;4.95;;
34296;SDS011;20564;42.902;25.336;2023-07-13T03:51:46;12.37;;;5.07;;
34296;SDS011;20564;42.902;25.336;2023-07-13T03:54:13;10.43;;;4.35;;
34296;SDS011;20564;42.902;25.336;2023-07-13T03:56:40;10.38;;;4.57;;
34296;SDS011;20564;42.902;25.336;2023-07-13T03:59:07;11.75;;;4.80;;
34296;SDS011;20564;42.902;25.336;2023-07-13T04:01:34;13.30;;;4.50;;
34296;SDS011;20564;42.902;25.336;2023-07-13T04:04:01;10.90;;;4.37;;
34296;SDS011;20564;42.902;25.336;2023-07-13T04:06:30;11.52;;;4.43;;
34296;SDS011;20564;42.902;25.336;2023-07-13T04:08:59;10.23;;;4.40;;
34296;SDS011;20564;42.902;25.336;2023-07-13T04:11:29;10.40;;;4.22;;
34296;SDS011;20564;42.902;25.336;2023-07-13T04:13:58;11.65;;;4.80;;
34296;SDS011;20564;42.902;25.336;2023-07-13T04:16:25;11.05;;;4.57;;
34296;SDS011;20564;42.902;25.336;2023-07-13T04:18:52;9.98;;;4.68;;
34296;SDS011;20564;42.902;25.336;2023-07-13T04:21:21;11.73;;;5.00;;
34296;SDS011;20564;42.902;25.336;2023-07-13T04:23:48;12.40;;;4.55;;
34296;SDS011;20564;42.902;25.336;2023-07-13T04:26:16;10.80;;;4.25;;
34296;SDS011;20564;42.902;25.336;2023-07-13T04:28:43;10.95;;;4.43;;
34296;SDS011;20564;42.902;25.336;2023-07-13T04:31:13;14.85;;;4.88;;
34296;SDS011;20564;42.902;25.336;2023-07-13T04:33:44;11.27;;;4.40;;
34296;SDS011;20564;42.902;25.336;2023-07-13T04:36:14;10.70;;;4.80;;
34296;SDS011;20564;42.902;25.336;2023-07-13T04:38:43;10.20;;;4.13;;
34296;SDS011;20564;42.902;25.336;2023-07-13T04:41:11;10.02;;;4.32;;
34296;SDS011;20564;42.902;25.336;2023-07-13T04:43:43;10.70;;;3.88;;
34296;SDS011;20564;42.902;25.336;2023-07-13T04:46:11;9.05;;;3.88;;
34296;SDS011;20564;42.902;25.336;2023-07-13T04:48:41;9.43;;;4.00;;
34296;SDS011;20564;42.902;25.336;2023-07-13T04:51:08;8.65;;;3.80;;
34296;SDS011;20564;42.902;25.336;2023-07-13T04:56:05;10.18;;;4.25;;
34296;SDS011;20564;42.902;25.336;2023-07-13T04:58:33;10.63;;;4.30;;
34296;SDS011;20564;42.902;25.336;2023-07-13T05:01:01;9.52;;;3.80;;
34296;SDS011;20564;42.902;25.336;2023-07-13T05:03:30;8.55;;;3.45;;
34296;SDS011;20564;42.902;25.336;2023-07-13T05:06:11;7.82;;;3.38;;
34296;SDS011;20564;42.902;25.336;2023-07-13T05:08:38;9.80;;;4.03;;
34296;SDS011;20564;42.902;25.336;2023-07-13T05:11:05;9.57;;;3.90;;
34296;SDS011;20564;42.902;25.336;2023-07-13T05:13:34;9.25;;;3.80;;
34296;SDS011;20564;42.902;25.336;2023-07-13T05:16:04;10.43;;;4.13;;
34296;SDS011;20564;42.902;25.336;2023-07-13T05:18:35;9.57;;;3.83;;
34296;SDS011;20564;42.902;25.336;2023-07-13T05:21:07;8.80;;;3.97;;
34296;SDS011;20564;42.902;25.336;2023-07-13T05:23:36;8.95;;;3.90;;
34296;SDS011;20564;42.902;25.336;2023-07-13T05:26:04;11.10;;;4.22;;
34296;SDS011;20564;42.902;25.336;2023-07-13T05:28:35;8.38;;;3.70;;
34296;SDS011;20564;42.902;25.336;2023-07-13T05:31:03;8.50;;;3.72;;
34296;SDS011;20564;42.902;25.336;2023-07-13T05:33:30;8.75;;;4.03;;
34296;SDS011;20564;42.902;25.336;2023-07-13T05:35:57;9.90;;;4.30;;
34296;SDS011;20564;42.902;25.336;2023-07-13T05:40:52;9.07;;;3.50;;
34296;SDS011;20564;42.902;25.336;2023-07-13T05:43:21;10.13;;;3.90;;
34296;SDS011;20564;42.902;25.336;2023-07-13T05:45:50;10.13;;;4.63;;
34296;SDS011;20564;42.902;25.336;2023-07-13T05:48:20;11.18;;;4.43;;
34296;SDS011;20564;42.902;25.336;2023-07-13T05:55:44;10.80;;;4.20;;
34296;SDS011;20564;42.902;25.336;2023-07-13T05:58:19;9.65;;;4.15;;
34296;SDS011;20564;42.902;25.336;2023-07-13T06:00:47;9.98;;;3.88;;
34296;SDS011;20564;42.902;25.336;2023-07-13T06:03:14;8.98;;;4.22;;
34296;SDS011;20564;42.902;25.336;2023-07-13T06:05:42;9.50;;;4.00;;
34296;SDS011;20564;42.902;25.336;2023-07-13T06:08:09;11.27;;;4.80;;
34296;SDS011;20564;42.902;25.336;2023-07-13T06:10:36;8.20;;;3.78;;
34296;SDS011;20564;42.902;25.336;2023-07-13T06:13:03;8.50;;;4.22;;
34296;SDS011;20564;42.902;25.336;2023-07-13T06:15:30;9.05;;;3.80;;
34296;SDS011;20564;42.902;25.336;2023-07-13T06:17:57;9.07;;;3.63;;
34296;SDS011;20564;42.902;25.336;2023-07-13T06:20:27;9.43;;;3.72;;
34296;SDS011;20564;42.902;25.336;2023-07-13T06:22:55;9.40;;;3.80;;
34296;SDS011;20564;42.902;25.336;2023-07-13T06:25:26;11.10;;;3.50;;
34296;SDS011;20564;42.902;25.336;2023-07-13T06:27:53;10.98;;;3.67;;
34296;SDS011;20564;42.902;25.336;2023-07-13T06:32:47;7.30;;;3.20;;
34296;SDS011;20564;42.902;25.336;2023-07-13T06:35:16;11.80;;;3.80;;
34296;SDS011;20564;42.902;25.336;2023-07-13T06:37:43;9.07;;;3.90;;
34296;SDS011;20564;42.902;25.336;2023-07-13T06:40:10;9.18;;;3.72;;
34296;SDS011;20564;42.902;25.336;2023-07-13T06:42:37;8.82;;;3.38;;
34296;SDS011;20564;42.902;25.336;2023-07-13T06:45:05;8.85;;;3.63;;
34296;SDS011;20564;42.902;25.336;2023-07-13T06:47:32;8.55;;;3.60;;
34296;SDS011;20564;42.902;25.336;2023-07-13T06:50:00;8.05;;;3.35;;
34296;SDS011;20564;42.902;25.336;2023-07-13T06:52:27;7.63;;;3.25;;
34296;SDS011;20564;42.902;25.336;2023-07-13T06:57:21;10.95;;;3.47;;
34296;SDS011;20564;42.902;25.336;2023-07-13T06:59:49;6.10;;;2.92;;
34296;SDS011;20564;42.902;25.336;2023-07-13T07:02:17;7.55;;;3.25;;
34296;SDS011;20564;42.902;25.336;2023-07-13T07:04:48;8.98;;;3.65;;
34296;SDS011;20564;42.902;25.336;2023-07-13T07:07:17;10.05;;;3.90;;
34296;SDS011;20564;42.902;25.336;2023-07-13T07:12:25;6.93;;;3.08;;
34296;SDS011;20564;42.902;25.336;2023-07-13T07:14:56;7.63;;;3.35;;
34296;SDS011;20564;42.902;25.336;2023-07-13T07:17:24;6.90;;;3.25;;
34296;SDS011;20564;42.902;25.336;2023-07-13T07:19:53;8.57;;;3.10;;
34296;SDS011;20564;42.902;25.336;2023-07-13T07:22:20;8.93;;;3.25;;
34296;SDS011;20564;42.902;25.336;2023-07-13T07:24:48;6.82;;;3.20;;
34296;SDS011;20564;42.902;25.336;2023-07-13T07:27:15;5.63;;;2.95;;
34296;SDS011;20564;42.902;25.336;2023-07-13T07:29:45;8.63;;;3.03;;
34296;SDS011;20564;42.902;25.336;2023-07-13T07:32:32;7.78;;;3.38;;
34296;SDS011;20564;42.902;25.336;2023-07-13T07:35:03;9.60;;;3.70;;
34296;SDS011;20564;42.902;25.336;2023-07-13T07:37:30;8.18;;;3.22;;
34296;SDS011;20564;42.902;25.336;2023-07-13T07:40:04;7.78;;;3.00;;
34296;SDS011;20564;42.902;25.336;2023-07-13T07:42:35;8.25;;;3.28;;
34296;SDS011;20564;42.902;25.336;2023-07-13T07:45:02;9.70;;;3.67;;
34296;SDS011;20564;42.902;25.336;2023-07-13T07:47:33;7.45;;;2.92;;
34296;SDS011;20564;42.902;25.336;2023-07-13T07:50:03;9.98;;;3.22;;
34296;SDS011;20564;42.902;25.336;2023-07-13T07:52:35;7.50;;;3.10;;
34296;SDS011;20564;42.902;25.336;2023-07-13T07:55:03;5.55;;;2.70;;
34296;SDS011;20564;42.902;25.336;2023-07-13T07:57:34;5.60;;;2.60;;
34296;SDS011;20564;42.902;25.336;2023-07-13T08:00:07;5.60;;;2.35;;
34296;SDS011;20564;42.902;25.336;2023-07-13T08:02:54;5.90;;;2.50;;
34296;SDS011;20564;42.902;25.336;2023-07-13T08:05:41;6.30;;;2.70;;
34296;SDS011;20564;42.902;25.336;2023-07-13T08:08:21;5.85;;;2.90;;
34296;SDS011;20564;42.902;25.336;2023-07-13T08:10:49;4.80;;;2.40;;
34296;SDS011;20564;42.902;25.336;2023-07-13T08:13:16;5.53;;;2.22;;
34296;SDS011;20564;42.902;25.336;2023-07-13T08:15:43;5.10;;;2.58;;
34296;SDS011;20564;42.902;25.336;2023-07-13T08:18:10;5.03;;;2.50;;
34296;SDS011;20564;42.902;25.336;2023-07-13T08:20:38;5.05;;;2.38;;
34296;SDS011;20564;42.902;25.336;2023-07-13T08:23:09;5.55;;;2.00;;
34296;SDS011;20564;42.902;25.336;2023-07-13T08:25:37;4.82;;;2.50;;
34296;SDS011;20564;42.902;25.336;2023-07-13T08:28:04;4.35;;;1.95;;
34296;SDS011;20564;42.902;25.336;2023-07-13T08:30:31;4.78;;;2.38;;
34296;SDS011;20564;42.902;25.336;2023-07-13T08:32:58;6.47;;;2.38;;
34296;SDS011;20564;42.902;25.336;2023-07-13T08:35:40;5.88;;;2.30;;
34296;SDS011;20564;42.902;25.336;2023-07-13T08:38:07;4.80;;;2.00;;
34296;SDS011;20564;42.902;25.336;2023-07-13T08:40:34;5.88;;;2.28;;
34296;SDS011;20564;42.902;25.336;2023-07-13T08:43:01;5.63;;;2.40;;
34296;SDS011;20564;42.902;25.336;2023-07-13T08:45:47;6.82;;;2.50;;
34296;SDS011;20564;42.902;25.336;2023-07-13T08:48:27;6.65;;;2.22;;
34296;SDS011;20564;42.902;25.336;2023-07-13T08:51:02;6.40;;;2.55;;
34296;SDS011;20564;42.902;25.336;2023-07-13T08:53:38;7.47;;;2.50;;
34296;SDS011;20564;42.902;25.336;2023-07-13T08:56:16;6.43;;;2.72;;
34296;SDS011;20564;42.902;25.336;2023-07-13T09:06:39;4.82;;;2.20;;
34296;SDS011;20564;42.902;25.336;2023-07-13T09:09:23;3.65;;;1.88;;
34296;SDS011;20564;42.902;25.336;2023-07-13T09:15:32;5.90;;;2.20;;
34296;SDS011;20564;42.902;25.336;2023-07-13T09:20:44;6.55;;;2.47;;
34296;SDS011;20564;42.902;25.336;2023-07-13T09:23:17;6.15;;;2.35;;
34296;SDS011;20564;42.902;25.336;2023-07-13T09:25:48;4.82;;;2.17;;
34296;SDS011;20564;42.902;25.336;2023-07-13T09:28:26;6.13;;;2.28;;
34296;SDS011;20564;42.902;25.336;2023-07-13T09:31:14;6.47;;;2.33;;
34296;SDS011;20564;42.902;25.336;2023-07-13T09:33:50;4.38;;;2.30;;
34296;SDS011;20564;42.902;25.336;2023-07-13T09:36:19;5.00;;;2.25;;
34296;SDS011;20564;42.902;25.336;2023-07-13T09:38:56;5.07;;;2.50;;
34296;SDS011;20564;42.902;25.336;2023-07-13T09:41:55;4.65;;;2.20;;
34296;SDS011;20564;42.902;25.336;2023-07-13T09:44:31;5.18;;;2.53;;
34296;SDS011;20564;42.902;25.336;2023-07-13T09:47:02;6.07;;;2.45;;
34296;SDS011;20564;42.902;25.336;2023-07-13T09:49:34;4.18;;;2.22;;
34296;SDS011;20564;42.902;25.336;2023-07-13T09:52:04;5.85;;;2.13;;
34296;SDS011;20564;42.902;25.336;2023-07-13T09:54:34;4.03;;;2.00;;
34296;SDS011;20564;42.902;25.336;2023-07-13T09:57:03;3.92;;;2.10;;
34296;SDS011;20564;42.902;25.336;2023-07-13T09:59:40;5.03;;;2.47;;
34296;SDS011;20564;42.902;25.336;2023-07-13T10:04:55;5.65;;;2.38;;
34296;SDS011;20564;42.902;25.336;2023-07-13T10:07:25;4.60;;;2.33;;
34296;SDS011;20564;42.902;25.336;2023-07-13T10:09:59;5.28;;;2.45;;
34296;SDS011;20564;42.902;25.336;2023-07-13T10:12:28;6.43;;;2.40;;
34296;SDS011;20564;42.902;25.336;2023-07-13T10:14:58;5.72;;;2.47;;
34296;SDS011;20564;42.902;25.336;2023-07-13T10:17:47;5.03;;;2.50;;
34296;SDS011;20564;42.902;25.336;2023-07-13T10:20:15;7.50;;;2.53;;
34296;SDS011;20564;42.902;25.336;2023-07-13T10:22:49;6.35;;;2.95;;
34296;SDS011;20564;42.902;25.336;2023-07-13T10:25:25;4.60;;;2.50;;
34296;SDS011;20564;42.902;25.336;2023-07-13T10:28:16;6.03;;;2.70;;
34296;SDS011;20564;42.902;25.336;2023-07-13T10:31:00;4.45;;;1.95;;
34296;SDS011;20564;42.902;25.336;2023-07-13T10:33:29;6.28;;;2.70;;
34296;SDS011;20564;42.902;25.336;2023-07-13T10:36:04;5.15;;;2.33;;
34296;SDS011;20564;42.902;25.336;2023-07-13T10:39:01;5.53;;;2.60;;
34296;SDS011;20564;42.902;25.336;2023-07-13T10:41:32;6.45;;;2.70;;
34296;SDS011;20564;42.902;25.336;2023-07-13T10:44:03;5.13;;;2.45;;
34296;SDS011;20564;42.902;25.336;2023-07-13T10:46:36;5.05;;;2.50;;
34296;SDS011;20564;42.902;25.336;2023-07-13T10:49:05;5.72;;;2.42;;
34296;SDS011;20564;42.902;25.336;2023-07-13T10:51:36;5.97;;;2.60;;
34296;SDS011;20564;42.902;25.336;2023-07-13T10:57:32;7.30;;;2.90;;
34296;SDS011;20564;42.902;25.336;2023-07-13T10:59:39;7.80;;;2.47;;
34296;SDS011;20564;42.902;25.336;2023-07-13T11:02:10;4.53;;;2.50;;
34296;SDS011;20564;42.902;25.336;2023-07-13T11:04:43;6.70;;;2.60;;
34296;SDS011;20564;42.902;25.336;2023-07-13T11:07:22;6.07;;;2.57;;
34296;SDS011;20564;42.902;25.336;2023-07-13T11:09:54;6.43;;;2.70;;
34296;SDS011;20564;42.902;25.336;2023-07-13T11:15:33;5.65;;;2.28;;
34296;SDS011;20564;42.902;25.336;2023-07-13T11:18:22;5.95;;;2.80;;
34296;SDS011;20564;42.902;25.336;2023-07-13T11:24:14;4.90;;;2.35;;
34296;SDS011;20564;42.902;25.336;2023-07-13T11:26:46;4.78;;;2.42;;
34296;SDS011;20564;42.902;25.336;2023-07-13T11:29:24;6.85;;;2.47;;
34296;SDS011;20564;42.902;25.336;2023-07-13T11:32:00;6.03;;;2.60;;
34296;SDS011;20564;42.902;25.336;2023-07-13T11:34:48;4.68;;;2.28;;
34296;SDS011;20564;42.902;25.336;2023-07-13T11:37:16;7.10;;;2.90;;
34296;SDS011;20564;42.902;25.336;2023-07-13T11:39:49;4.70;;;2.40;;
34296;SDS011;20564;42.902;25.336;2023-07-13T11:42:19;4.72;;;2.40;;
34296;SDS011;20564;42.902;25.336;2023-07-13T11:44:48;5.00;;;2.13;;
34296;SDS011;20564;42.902;25.336;2023-07-13T11:47:39;4.47;;;2.35;;
34296;SDS011;20564;42.902;25.336;2023-07-13T11:50:16;4.95;;;2.35;;
34296;SDS011;20564;42.902;25.336;2023-07-13T11:52:45;4.47;;;2.33;;
34296;SDS011;20564;42.902;25.336;2023-07-13T11:55:16;5.47;;;2.58;;
34296;SDS011;20564;42.902;25.336;2023-07-13T11:57:51;5.97;;;2.33;;
34296;SDS011;20564;42.902;25.336;2023-07-13T12:00:26;4.57;;;2.30;;
34296;SDS011;20564;42.902;25.336;2023-07-13T12:02:59;6.15;;;2.88;;
34296;SDS011;20564;42.902;25.336;2023-07-13T12:05:29;8.80;;;2.95;;
34296;SDS011;20564;42.902;25.336;2023-07-13T12:07:57;5.65;;;2.78;;
34296;SDS011;20564;42.902;25.336;2023-07-13T12:10:28;5.65;;;2.58;;
34296;SDS011;20564;42.902;25.336;2023-07-13T12:12:57;7.10;;;2.63;;
34296;SDS011;20564;42.902;25.336;2023-07-13T12:15:37;5.32;;;2.35;;
34296;SDS011;20564;42.902;25.336;2023-07-13T12:18:18;4.70;;;2.60;;
34296;SDS011;20564;42.902;25.336;2023-07-13T12:20:47;7.18;;;2.72;;
34296;SDS011;20564;42.902;25.336;2023-07-13T12:25:54;5.93;;;2.30;;
34296;SDS011;20564;42.902;25.336;2023-07-13T12:31:01;7.28;;;2.47;;
34296;SDS011;20564;42.902;25.336;2023-07-13T12:33:32;6.25;;;2.85;;
34296;SDS011;20564;42.902;25.336;2023-07-13T12:36:00;8.15;;;3.22;;
34296;SDS011;20564;42.902;25.336;2023-07-13T12:38:31;7.35;;;2.97;;
34296;SDS011;20564;42.902;25.336;2023-07-13T12:41:00;7.00;;;2.85;;
34296;SDS011;20564;42.902;25.336;2023-07-13T12:43:32;6.68;;;2.47;;
34296;SDS011;20564;42.902;25.336;2023-07-13T12:46:14;4.63;;;2.40;;
34296;SDS011;20564;42.902;25.336;2023-07-13T12:48:47;5.63;;;2.65;;
34296;SDS011;20564;42.902;25.336;2023-07-13T12:51:29;6.15;;;2.80;;
34296;SDS011;20564;42.902;25.336;2023-07-13T12:53:59;5.95;;;2.67;;
34296;SDS011;20564;42.902;25.336;2023-07-13T12:56:39;8.50;;;2.45;;
34296;SDS011;20564;42.902;25.336;2023-07-13T12:59:08;6.15;;;2.85;;
34296;SDS011;20564;42.902;25.336;2023-07-13T13:01:49;5.82;;;2.67;;
34296;SDS011;20564;42.902;25.336;2023-07-13T13:04:17;6.35;;;2.75;;
34296;SDS011;20564;42.902;25.336;2023-07-13T13:06:48;4.18;;;2.40;;
34296;SDS011;20564;42.902;25.336;2023-07-13T13:09:27;5.35;;;2.53;;
34296;SDS011;20564;42.902;25.336;2023-07-13T13:11:54;4.82;;;2.50;;
34296;SDS011;20564;42.902;25.336;2023-07-13T13:14:21;7.03;;;2.80;;
34296;SDS011;20564;42.902;25.336;2023-07-13T13:16:49;5.47;;;2.60;;
34296;SDS011;20564;42.902;25.336;2023-07-13T13:19:23;4.95;;;2.38;;
34296;SDS011;20564;42.902;25.336;2023-07-13T13:21:53;4.93;;;2.53;;
34296;SDS011;20564;42.902;25.336;2023-07-13T13:24:23;5.82;;;2.42;;
34296;SDS011;20564;42.902;25.336;2023-07-13T13:26:55;5.70;;;2.42;;
34296;SDS011;20564;42.902;25.336;2023-07-13T13:29:26;5.70;;;2.60;;
34296;SDS011;20564;42.902;25.336;2023-07-13T13:31:54;6.18;;;2.70;;
34296;SDS011;20564;42.902;25.336;2023-07-13T13:34:22;5.70;;;2.60;;
34296;SDS011;20564;42.902;25.336;2023-07-13T13:36:50;4.78;;;2.28;;
34296;SDS011;20564;42.902;25.336;2023-07-13T13:39:24;5.85;;;2.40;;
34296;SDS011;20564;42.902;25.336;2023-07-13T13:41:56;6.57;;;2.70;;
34296;SDS011;20564;42.902;25.336;2023-07-13T13:48:05;5.05;;;2.50;;
34296;SDS011;20564;42.902;25.336;2023-07-13T13:50:40;8.15;;;2.85;;
34296;SDS011;20564;42.902;25.336;2023-07-13T13:53:10;6.55;;;3.00;;
34296;SDS011;20564;42.902;25.336;2023-07-13T13:55:39;4.75;;;2.50;;
34296;SDS011;20564;42.902;25.336;2023-07-13T13:58:09;6.18;;;2.80;;
34296;SDS011;20564;42.902;25.336;2023-07-13T14:00:37;7.57;;;3.13;;
34296;SDS011;20564;42.902;25.336;2023-07-13T14:03:13;5.20;;;2.78;;
34296;SDS011;20564;42.902;25.336;2023-07-13T14:05:43;6.30;;;2.45;;
34296;SDS011;20564;42.902;25.336;2023-07-13T14:08:12;8.18;;;3.40;;
34296;SDS011;20564;42.902;25.336;2023-07-13T14:10:44;4.22;;;2.50;;
34296;SDS011;20564;42.902;25.336;2023-07-13T14:13:36;7.63;;;3.28;;
34296;SDS011;20564;42.902;25.336;2023-07-13T14:16:07;5.32;;;2.83;;
34296;SDS011;20564;42.902;25.336;2023-07-13T14:18:38;7.20;;;2.80;;
34296;SDS011;20564;42.902;25.336;2023-07-13T14:21:11;6.88;;;2.70;;
34296;SDS011;20564;42.902;25.336;2023-07-13T14:23:48;6.47;;;2.53;;
34296;SDS011;20564;42.902;25.336;2023-07-13T14:26:21;7.47;;;3.10;;
34296;SDS011;20564;42.902;25.336;2023-07-13T14:28:52;5.88;;;2.58;;
34296;SDS011;20564;42.902;25.336;2023-07-13T14:31:22;5.22;;;2.67;;
34296;SDS011;20564;42.902;25.336;2023-07-13T14:33:56;7.90;;;2.78;;
34296;SDS011;20564;42.902;25.336;2023-07-13T14:36:28;6.63;;;2.42;;
34296;SDS011;20564;42.902;25.336;2023-07-13T14:39:11;5.60;;;2.60;;
34296;SDS011;20564;42.902;25.336;2023-07-13T14:41:41;6.07;;;2.90;;
34296;SDS011;20564;42.902;25.336;2023-07-13T14:44:14;6.38;;;2.60;;
34296;SDS011;20564;42.902;25.336;2023-07-13T14:46:46;5.50;;;2.65;;
34296;SDS011;20564;42.902;25.336;2023-07-13T14:49:41;7.43;;;2.90;;
34296;SDS011;20564;42.902;25.336;2023-07-13T14:52:19;8.75;;;2.70;;
34296;SDS011;20564;42.902;25.336;2023-07-13T14:54:51;5.57;;;2.67;;
34296;SDS011;20564;42.902;25.336;2023-07-13T14:57:35;5.47;;;2.90;;
34296;SDS011;20564;42.902;25.336;2023-07-13T15:00:15;8.17;;;3.07;;
34296;SDS011;20564;42.902;25.336;2023-07-13T15:02:45;6.00;;;2.95;;
34296;SDS011;20564;42.902;25.336;2023-07-13T15:05:16;6.00;;;2.90;;
34296;SDS011;20564;42.902;25.336;2023-07-13T15:07:49;5.05;;;2.55;;
34296;SDS011;20564;42.902;25.336;2023-07-13T15:10:18;9.10;;;2.65;;
34296;SDS011;20564;42.902;25.336;2023-07-13T15:12:47;6.18;;;2.80;;
34296;SDS011;20564;42.902;25.336;2023-07-13T15:15:14;5.10;;;2.60;;
34296;SDS011;20564;42.902;25.336;2023-07-13T15:17:43;7.07;;;2.80;;
34296;SDS011;20564;42.902;25.336;2023-07-13T15:20:19;5.05;;;2.70;;
34296;SDS011;20564;42.902;25.336;2023-07-13T15:22:52;6.57;;;2.90;;
34296;SDS011;20564;42.902;25.336;2023-07-13T15:25:21;7.47;;;3.33;;
34296;SDS011;20564;42.902;25.336;2023-07-13T15:27:52;7.65;;;3.00;;
34296;SDS011;20564;42.902;25.336;2023-07-13T15:30:20;6.00;;;2.70;;
34296;SDS011;20564;42.902;25.336;2023-07-13T15:32:48;5.53;;;2.45;;
34296;SDS011;20564;42.902;25.336;2023-07-13T15:35:19;7.75;;;3.05;;
34296;SDS011;20564;42.902;25.336;2023-07-13T15:37:48;7.40;;;2.90;;
34296;SDS011;20564;42.902;25.336;2023-07-13T15:40:16;7.80;;;2.95;;
34296;SDS011;20564;42.902;25.336;2023-07-13T15:42:45;7.93;;;2.50;;
34296;SDS011;20564;42.902;25.336;2023-07-13T15:45:16;6.00;;;2.67;;
34296;SDS011;20564;42.902;25.336;2023-07-13T15:47:45;5.93;;;3.15;;
34296;SDS011;20564;42.902;25.336;2023-07-13T15:50:17;6.95;;;2.53;;
34296;SDS011;20564;42.902;25.336;2023-07-13T15:52:53;6.85;;;2.95;;
34296;SDS011;20564;42.902;25.336;2023-07-13T15:55:22;6.78;;;2.90;;
34296;SDS011;20564;42.902;25.336;2023-07-13T15:57:51;6.03;;;2.60;;
34296;SDS011;20564;42.902;25.336;2023-07-13T16:00:45;6.60;;;2.78;;
34296;SDS011;20564;42.902;25.336;2023-07-13T16:03:16;5.60;;;2.78;;
34296;SDS011;20564;42.902;25.336;2023-07-13T16:05:45;10.15;;;3.00;;